Time;durP1;ratioP1;P1;durP2;ratioP2;P2;SDS_P1;SDS_P2;PMS_P1;PMS_P2;Temp;Humidity;BMP_temperature;BMP_pressure;BME280_temperature;BME280_humidity;BME280_pressure;Samples;Min_cycle;Max_cycle;Signal;HPM_P1;HPM_P2
2023/05/15 00:01:06;;;;;;;51.53;32.05;;;11.80;99.90;;;;;;5151125;27;20035;-34
2023/05/15 00:03:32;;;;;;;45.88;31.85;;;11.80;99.90;;;;;;5147815;27;20038;-35
2023/05/15 00:05:58;;;;;;;47.78;31.38;;;11.80;99.90;;;;;;5138747;27;20124;-35
2023/05/15 00:08:24;;;;;;;47.58;32.95;;;11.80;99.90;;;;;;5146622;27;20041;-34
2023/05/15 00:10:50;;;;;;;55.35;34.35;;;11.80;99.90;;;;;;5153758;27;20042;-35
2023/05/15 00:13:17;;;;;;;51.28;33.08;;;11.90;99.90;;;;;;5146122;27;20403;-34
2023/05/15 00:15:43;;;;;;;54.97;34.53;;;11.90;99.90;;;;;;5150020;27;20045;-34
2023/05/15 00:18:09;;;;;;;54.92;34.83;;;11.90;99.90;;;;;;5149063;27;20475;-34
2023/05/15 00:20:35;;;;;;;52.65;34.53;;;11.90;99.90;;;;;;5139699;27;20027;-34
2023/05/15 00:23:00;;;;;;;50.30;34.63;;;11.90;99.90;;;;;;5135626;27;20041;-34
2023/05/15 00:25:26;;;;;;;52.67;33.90;;;11.90;99.90;;;;;;5126354;27;20522;-34
2023/05/15 00:27:52;;;;;;;58.75;37.10;;;12.00;99.90;;;;;;5136816;27;20039;-34
2023/05/15 00:30:17;;;;;;;54.22;34.17;;;11.90;99.90;;;;;;5148572;27;20035;-34
2023/05/15 00:32:43;;;;;;;54.75;34.25;;;11.90;99.90;;;;;;5128959;27;20493;-34
2023/05/15 00:35:09;;;;;;;62.42;37.17;;;11.90;99.90;;;;;;5137533;27;20087;-34
2023/05/15 00:37:35;;;;;;;62.05;36.92;;;11.90;99.90;;;;;;5152747;27;20034;-34
2023/05/15 00:40:00;;;;;;;51.00;35.20;;;11.90;99.90;;;;;;5138442;27;20116;-34
2023/05/15 00:42:27;;;;;;;52.83;34.85;;;11.90;99.90;;;;;;5147692;27;20041;-34
2023/05/15 00:44:55;;;;;;;52.85;34.80;;;11.90;99.90;;;;;;5140619;27;20479;-34
2023/05/15 00:47:22;;;;;;;55.03;34.00;;;11.90;99.90;;;;;;5152407;27;20547;-34
2023/05/15 00:49:48;;;;;;;55.25;35.38;;;11.90;99.90;;;;;;5150549;27;20042;-34
2023/05/15 00:52:14;;;;;;;53.97;35.47;;;11.90;99.90;;;;;;5151375;27;20038;-34
2023/05/15 00:54:40;;;;;;;55.97;36.28;;;11.90;99.90;;;;;;5147263;27;20046;-34
2023/05/15 00:57:08;;;;;;;72.05;39.28;;;11.90;99.90;;;;;;5148745;27;20035;-36
2023/05/15 00:59:36;;;;;;;62.25;36.70;;;11.90;99.90;;;;;;5162514;27;20083;-35
2023/05/15 01:02:02;;;;;;;55.78;36.33;;;11.80;99.90;;;;;;5154745;27;20118;-36
2023/05/15 01:04:28;;;;;;;61.88;37.55;;;11.80;99.90;;;;;;5138900;27;20046;-36
2023/05/15 01:06:54;;;;;;;62.47;38.08;;;11.80;99.90;;;;;;5139047;27;20032;-35
2023/05/15 01:09:23;;;;;;;53.17;33.45;;;11.80;99.90;;;;;;5144253;27;20550;-39
2023/05/15 01:11:52;;;;;;;54.08;35.47;;;11.70;99.90;;;;;;5139555;27;20326;-38
2023/05/15 01:14:18;;;;;;;51.53;34.38;;;11.80;99.90;;;;;;5143952;27;20110;-36
2023/05/15 01:16:44;;;;;;;50.55;33.63;;;11.80;99.90;;;;;;5152042;27;20109;-37
2023/05/15 01:19:10;;;;;;;51.35;33.40;;;11.80;99.90;;;;;;5149125;27;20462;-35
2023/05/15 01:21:36;;;;;;;51.83;35.13;;;11.80;99.90;;;;;;5153297;27;20065;-34
2023/05/15 01:24:33;;;;;;;53.25;34.72;;;11.80;99.90;;;;;;5139545;27;20041;-34
2023/05/15 01:27:08;;;;;;;56.05;35.80;;;11.80;99.90;;;;;;5146671;27;20091;-35
2023/05/15 01:29:43;;;;;;;51.63;34.05;;;11.90;99.90;;;;;;5167884;27;20086;-35
2023/05/15 01:32:15;;;;;;;51.35;32.80;;;11.90;99.90;;;;;;5144984;27;20045;-35
2023/05/15 01:34:50;;;;;;;54.72;35.88;;;11.90;99.90;;;;;;5151647;27;20399;-35
2023/05/15 01:37:21;;;;;;;50.97;34.10;;;11.90;99.90;;;;;;5127494;27;20051;-34
2023/05/15 01:39:52;;;;;;;52.80;32.75;;;11.90;99.90;;;;;;5154987;27;20057;-35
2023/05/15 01:42:19;;;;;;;46.13;31.65;;;11.90;99.90;;;;;;5151225;27;20036;-35
2023/05/15 01:44:54;;;;;;;51.83;32.17;;;11.80;99.90;;;;;;5155390;27;20065;-34
2023/05/15 01:47:33;;;;;;;48.03;31.27;;;11.80;99.90;;;;;;5137679;27;20049;-35
2023/05/15 01:50:01;;;;;;;48.65;32.22;;;11.80;99.90;;;;;;5154979;27;20030;-35
2023/05/15 01:52:37;;;;;;;44.67;30.13;;;11.70;99.90;;;;;;5144945;27;20118;-34
2023/05/15 01:55:06;;;;;;;54.90;32.58;;;11.80;99.90;;;;;;5148489;27;20049;-34
2023/05/15 01:57:33;;;;;;;45.47;30.48;;;11.70;99.90;;;;;;5161512;27;20030;-34
2023/05/15 02:00:00;;;;;;;53.05;30.65;;;11.70;99.90;;;;;;5148469;27;20069;-34
2023/05/15 02:02:28;;;;;;;43.90;29.90;;;11.60;99.90;;;;;;5139059;27;20034;-34
2023/05/15 02:04:55;;;;;;;48.75;31.20;;;11.60;99.90;;;;;;5152254;27;20034;-34
2023/05/15 02:07:21;;;;;;;50.60;30.23;;;11.60;99.90;;;;;;5149731;27;20043;-35
2023/05/15 02:09:48;;;;;;;44.17;29.73;;;11.50;99.90;;;;;;5150230;27;20533;-34
2023/05/15 02:12:14;;;;;;;47.22;30.15;;;11.50;99.90;;;;;;5137793;27;20034;-34
2023/05/15 02:14:41;;;;;;;40.17;28.38;;;11.50;99.90;;;;;;5138070;27;20038;-35
2023/05/15 02:17:07;;;;;;;49.55;29.52;;;11.40;99.90;;;;;;5148955;27;20054;-34
2023/05/15 02:19:33;;;;;;;38.30;26.98;;;11.40;99.90;;;;;;5156528;27;20026;-35
2023/05/15 02:21:59;;;;;;;42.88;30.25;;;11.40;99.90;;;;;;5147568;27;20038;-34
2023/05/15 02:24:24;;;;;;;44.97;30.50;;;11.40;99.90;;;;;;5143271;27;20042;-34
2023/05/15 02:27:23;;;;;;;40.92;28.88;;;11.40;99.90;;;;;;5137993;27;20403;-34
2023/05/15 02:30:10;;;;;;;40.22;26.63;;;11.40;99.90;;;;;;5139419;27;20035;-34
2023/05/15 02:32:48;;;;;;;42.15;28.17;;;11.40;99.90;;;;;;5139813;27;20049;-34
2023/05/15 02:35:33;;;;;;;45.78;27.67;;;11.40;99.90;;;;;;5146869;27;20049;-34
2023/05/15 02:38:01;;;;;;;46.45;26.83;;;11.30;99.90;;;;;;5175873;27;20060;-34
2023/05/15 02:40:29;;;;;;;39.22;26.48;;;11.30;99.90;;;;;;5152764;27;20190;-34
2023/05/15 02:42:57;;;;;;;39.95;27.67;;;11.30;99.90;;;;;;5139564;27;20034;-34
2023/05/15 02:45:24;;;;;;;50.00;28.60;;;11.30;99.90;;;;;;5146620;27;20055;-34
2023/05/15 02:47:51;;;;;;;47.53;29.63;;;11.30;99.90;;;;;;5154882;27;20395;-35
2023/05/15 02:50:17;;;;;;;46.22;30.17;;;11.20;99.90;;;;;;5127534;27;20051;-34
2023/05/15 02:52:43;;;;;;;43.78;29.73;;;11.20;99.90;;;;;;5157903;27;20035;-34
2023/05/15 02:55:09;;;;;;;47.80;31.13;;;11.20;99.90;;;;;;5161345;27;20056;-34
2023/05/15 02:57:35;;;;;;;41.22;28.48;;;11.20;99.90;;;;;;5136887;27;20041;-35
2023/05/15 03:00:04;;;;;;;44.80;29.13;;;11.20;99.90;;;;;;5127514;27;20113;-34
2023/05/15 03:02:29;;;;;;;44.47;28.65;;;11.20;99.90;;;;;;5145323;27;20031;-34
2023/05/15 03:04:55;;;;;;;34.17;26.48;;;11.20;99.90;;;;;;5151483;27;20124;-34
2023/05/15 03:07:21;;;;;;;44.53;27.83;;;11.20;99.90;;;;;;5155810;27;20027;-34
2023/05/15 03:09:47;;;;;;;95.35;31.23;;;11.20;99.90;;;;;;5152566;27;20117;-35
2023/05/15 03:12:13;;;;;;;50.10;29.63;;;11.20;99.90;;;;;;5148643;27;20483;-34
2023/05/15 03:14:38;;;;;;;41.45;27.70;;;11.20;99.90;;;;;;5133117;27;20047;-35
2023/05/15 03:17:04;;;;;;;38.97;26.17;;;11.10;99.90;;;;;;5142331;27;20066;-35
2023/05/15 03:19:30;;;;;;;44.13;28.05;;;11.10;99.90;;;;;;5157271;27;20030;-34
2023/05/15 03:21:56;;;;;;;44.90;25.40;;;11.10;99.90;;;;;;5140043;27;20461;-34
2023/05/15 03:24:22;;;;;;;46.63;27.13;;;11.10;99.90;;;;;;5153719;27;20175;-34
2023/05/15 03:26:48;;;;;;;64.15;27.55;;;11.00;99.90;;;;;;5145075;27;20086;-34
2023/05/15 03:29:13;;;;;;;60.35;29.33;;;11.00;99.90;;;;;;5143415;27;20117;-35
2023/05/15 03:31:39;;;;;;;41.78;26.42;;;10.90;99.90;;;;;;5152305;27;20099;-34
2023/05/15 03:34:05;;;;;;;44.45;25.10;;;10.90;99.90;;;;;;5145971;27;20034;-35
2023/05/15 03:36:31;;;;;;;64.40;27.85;;;10.90;99.90;;;;;;5158591;27;20034;-34
2023/05/15 03:38:56;;;;;;;43.08;26.60;;;10.90;99.90;;;;;;5140061;27;20480;-35
2023/05/15 03:41:22;;;;;;;53.75;26.92;;;10.90;99.90;;;;;;5136491;27;20519;-34
2023/05/15 03:43:48;;;;;;;54.13;28.83;;;10.90;99.90;;;;;;5138923;27;20121;-34
2023/05/15 03:46:14;;;;;;;40.35;28.00;;;10.80;99.90;;;;;;5137260;27;20540;-34
2023/05/15 03:48:40;;;;;;;77.18;28.35;;;10.80;99.90;;;;;;5144577;27;20041;-34
2023/05/15 03:51:05;;;;;;;67.28;31.92;;;10.80;99.90;;;;;;5143370;27;20035;-34
2023/05/15 03:53:31;;;;;;;42.40;27.73;;;10.80;99.90;;;;;;5146079;27;20030;-35
2023/05/15 03:55:57;;;;;;;35.90;24.45;;;10.80;99.90;;;;;;5154549;27;20030;-34
2023/05/15 03:58:23;;;;;;;40.92;25.23;;;10.80;99.90;;;;;;5151875;27;20038;-34
2023/05/15 04:00:48;;;;;;;65.75;25.98;;;10.80;99.90;;;;;;5152159;27;20057;-34
2023/05/15 04:03:14;;;;;;;61.33;26.83;;;10.80;99.90;;;;;;5156602;27;20026;-34
2023/05/15 04:05:40;;;;;;;39.17;25.48;;;10.80;99.90;;;;;;5143657;27;20043;-34
2023/05/15 04:08:06;;;;;;;40.90;27.00;;;10.80;99.90;;;;;;5146990;27;20034;-34
2023/05/15 04:10:32;;;;;;;40.10;26.85;;;10.70;99.90;;;;;;5137862;27;20498;-34
2023/05/15 04:12:58;;;;;;;39.67;27.77;;;10.80;99.90;;;;;;5141026;27;20059;-34
2023/05/15 04:15:25;;;;;;;46.30;28.48;;;10.70;99.90;;;;;;5142181;27;20445;-34
2023/05/15 04:17:53;;;;;;;66.72;31.63;;;10.80;99.90;;;;;;5141971;27;20034;-34
2023/05/15 04:20:21;;;;;;;64.18;32.63;;;10.80;99.90;;;;;;5152523;27;20075;-35
2023/05/15 04:22:47;;;;;;;42.25;29.65;;;10.80;99.90;;;;;;5147349;27;20089;-35
2023/05/15 04:25:13;;;;;;;65.20;31.65;;;10.80;99.90;;;;;;5135456;27;20125;-34
2023/05/15 04:27:40;;;;;;;47.72;30.25;;;10.80;99.90;;;;;;5145111;27;20049;-34
2023/05/15 04:30:07;;;;;;;49.95;30.27;;;10.70;99.90;;;;;;5138711;27;20042;-34
2023/05/15 04:32:34;;;;;;;45.10;29.02;;;10.70;99.90;;;;;;5138967;27;20030;-35
2023/05/15 04:35:04;;;;;;;47.45;29.67;;;10.70;99.90;;;;;;5140372;27;20046;-34
2023/05/15 04:37:30;;;;;;;41.00;27.80;;;10.60;99.90;;;;;;5161424;27;20399;-34
2023/05/15 04:39:56;;;;;;;40.65;27.85;;;10.70;99.90;;;;;;5142557;27;20037;-34
2023/05/15 04:42:22;;;;;;;41.78;27.75;;;10.60;99.90;;;;;;5138854;27;20030;-34
2023/05/15 04:44:48;;;;;;;39.45;27.95;;;10.70;99.90;;;;;;5147850;27;20034;-34
2023/05/15 04:47:14;;;;;;;48.80;29.08;;;10.70;99.90;;;;;;5136893;27;20044;-34
2023/05/15 04:49:42;;;;;;;41.53;28.77;;;10.70;99.90;;;;;;5140582;27;20034;-34
2023/05/15 04:52:08;;;;;;;41.80;26.60;;;10.70;99.90;;;;;;5138134;27;20039;-35
2023/05/15 04:54:34;;;;;;;47.85;28.73;;;10.80;99.90;;;;;;5155970;27;20471;-35
2023/05/15 04:57:00;;;;;;;49.88;28.38;;;10.80;99.90;;;;;;5154369;27;20034;-34
2023/05/15 04:59:27;;;;;;;41.10;27.55;;;10.80;99.90;;;;;;5154238;27;20066;-35
2023/05/15 05:01:53;;;;;;;39.83;26.55;;;10.80;99.90;;;;;;5147300;27;20030;-34
2023/05/15 05:04:19;;;;;;;37.25;25.73;;;10.80;99.90;;;;;;5136634;27;20175;-34
2023/05/15 05:06:51;;;;;;;44.40;29.40;;;10.90;99.90;;;;;;5149315;27;20042;-34
2023/05/15 05:09:18;;;;;;;39.53;27.52;;;10.80;99.90;;;;;;5124158;27;20046;-34
2023/05/15 05:11:45;;;;;;;40.17;27.17;;;10.80;99.90;;;;;;5155079;27;20091;-34
2023/05/15 05:14:11;;;;;;;40.75;27.23;;;10.80;99.90;;;;;;5138245;27;20102;-35
2023/05/15 05:16:37;;;;;;;40.00;27.98;;;10.80;99.90;;;;;;5149705;27;20480;-34
2023/05/15 05:19:03;;;;;;;40.50;27.40;;;10.80;99.90;;;;;;5140577;27;20030;-34
2023/05/15 05:21:29;;;;;;;41.22;27.70;;;10.80;99.90;;;;;;5141728;27;20033;-34
2023/05/15 05:23:55;;;;;;;43.67;28.00;;;10.90;99.90;;;;;;5153262;27;20034;-34
2023/05/15 05:26:21;;;;;;;47.30;30.30;;;10.90;99.90;;;;;;5150682;27;20095;-34
2023/05/15 05:28:47;;;;;;;42.20;28.25;;;10.80;99.90;;;;;;5152141;27;20057;-34
2023/05/15 05:31:13;;;;;;;43.42;28.25;;;10.80;99.90;;;;;;5142205;27;20099;-34
2023/05/15 05:33:39;;;;;;;43.15;28.33;;;10.90;99.90;;;;;;5137191;27;20042;-34
2023/05/15 05:36:05;;;;;;;45.35;28.35;;;10.90;99.90;;;;;;5138379;27;20041;-34
2023/05/15 05:38:42;;;;;;;47.30;28.75;;;10.90;99.90;;;;;;5147468;27;20079;-34
2023/05/15 05:41:08;;;;;;;47.40;27.83;;;11.00;99.90;;;;;;5158515;27;20066;-34
2023/05/15 05:43:34;;;;;;;47.45;29.58;;;11.00;99.90;;;;;;5139118;27;20081;-36
2023/05/15 05:46:01;;;;;;;45.38;28.60;;;11.00;99.90;;;;;;5137105;27;20038;-35
2023/05/15 05:48:27;;;;;;;46.28;29.25;;;11.00;99.90;;;;;;5142497;27;20038;-34
2023/05/15 05:50:53;;;;;;;43.70;27.67;;;11.00;99.90;;;;;;5155579;27;20452;-35
2023/05/15 05:53:18;;;;;;;44.35;28.85;;;11.10;99.90;;;;;;5144936;27;20034;-35
2023/05/15 05:55:45;;;;;;;42.65;27.20;;;11.10;99.90;;;;;;5142850;27;20030;-34
2023/05/15 05:58:10;;;;;;;42.15;27.25;;;11.10;99.90;;;;;;5156224;27;20034;-35
2023/05/15 06:00:36;;;;;;;37.17;25.25;;;11.00;99.90;;;;;;5148911;27;20026;-34
2023/05/15 06:03:02;;;;;;;40.20;25.85;;;11.00;99.90;;;;;;5149668;27;20474;-34
2023/05/15 06:05:28;;;;;;;39.95;26.98;;;11.00;99.90;;;;;;5138130;27;20472;-34
2023/05/15 06:07:54;;;;;;;36.42;25.20;;;10.90;99.90;;;;;;5168238;27;20522;-34
2023/05/15 06:10:20;;;;;;;37.03;25.00;;;10.90;99.90;;;;;;5151096;27;20030;-35
2023/05/15 06:12:47;;;;;;;36.90;26.05;;;10.90;99.90;;;;;;5140206;27;20042;-34
2023/05/15 06:15:15;;;;;;;35.30;26.05;;;10.90;99.90;;;;;;5139231;27;20046;-34
2023/05/15 06:17:40;;;;;;;38.25;26.25;;;10.90;99.90;;;;;;5153833;27;20065;-34
2023/05/15 06:20:07;;;;;;;36.47;26.17;;;10.90;99.90;;;;;;5139689;27;20062;-34
2023/05/15 06:22:34;;;;;;;37.97;26.20;;;11.00;99.90;;;;;;5147851;27;20067;-35
2023/05/15 06:25:01;;;;;;;36.72;25.65;;;11.00;99.90;;;;;;5123602;27;20046;-34
2023/05/15 06:27:28;;;;;;;35.70;25.33;;;11.00;99.90;;;;;;5129387;27;20082;-34
2023/05/15 06:29:54;;;;;;;40.92;24.90;;;11.00;99.90;;;;;;5153275;27;20121;-36
2023/05/15 06:32:20;;;;;;;32.42;23.48;;;11.00;99.90;;;;;;5152939;27;20045;-36
2023/05/15 06:34:46;;;;;;;33.35;24.00;;;11.10;99.90;;;;;;5166741;27;20475;-34
2023/05/15 06:37:11;;;;;;;33.25;24.33;;;11.20;99.90;;;;;;5153123;27;20034;-34
2023/05/15 06:39:37;;;;;;;31.65;22.67;;;11.30;99.90;;;;;;5135577;27;20480;-34
2023/05/15 06:42:03;;;;;;;31.42;23.60;;;11.40;99.90;;;;;;5149395;27;20038;-34
2023/05/15 06:44:30;;;;;;;30.33;24.08;;;11.50;99.90;;;;;;5151177;27;20038;-35
2023/05/15 06:46:56;;;;;;;29.13;21.70;;;11.70;99.90;;;;;;5137396;27;20031;-34
2023/05/15 06:49:25;;;;;;;30.27;23.45;;;11.80;99.90;;;;;;5147713;27;20042;-35
2023/05/15 06:51:51;;;;;;;30.67;23.15;;;11.80;99.90;;;;;;5142215;27;20027;-34
2023/05/15 06:54:17;;;;;;;30.73;23.00;;;12.00;99.90;;;;;;5152096;27;20048;-34
2023/05/15 06:56:43;;;;;;;31.73;23.88;;;12.20;99.90;;;;;;5162156;27;20030;-34
2023/05/15 06:59:09;;;;;;;30.25;22.20;;;12.40;99.90;;;;;;5152302;27;20092;-34
2023/05/15 07:01:34;;;;;;;28.45;21.67;;;12.30;99.90;;;;;;5155286;27;20074;-34
2023/05/15 07:04:00;;;;;;;30.52;23.40;;;12.40;99.90;;;;;;5155727;27;20530;-35
2023/05/15 07:06:30;;;;;;;33.08;23.35;;;12.40;99.90;;;;;;5145630;27;20312;-34
2023/05/15 07:08:57;;;;;;;31.33;22.23;;;12.40;99.90;;;;;;5135692;27;20042;-34
2023/05/15 07:11:22;;;;;;;31.80;22.77;;;12.40;99.90;;;;;;5149627;27;20046;-34
2023/05/15 07:13:48;;;;;;;28.25;20.70;;;12.50;99.90;;;;;;5139784;27;20042;-37
2023/05/15 07:16:14;;;;;;;26.02;21.13;;;12.50;99.90;;;;;;5137724;27;20034;-34
2023/05/15 07:18:40;;;;;;;26.75;20.65;;;12.60;99.90;;;;;;5150687;27;20122;-34
2023/05/15 07:21:06;;;;;;;25.60;20.40;;;12.70;99.90;;;;;;5151566;27;20022;-35
2023/05/15 07:23:32;;;;;;;27.15;20.77;;;12.90;99.90;;;;;;5139798;27;20045;-35
2023/05/15 07:25:57;;;;;;;24.77;19.48;;;13.20;99.90;;;;;;5138747;27;20453;-34
2023/05/15 07:28:23;;;;;;;23.88;19.30;;;13.40;99.90;;;;;;5140008;27;20073;-35
2023/05/15 07:30:49;;;;;;;23.40;19.33;;;13.50;99.90;;;;;;5146988;27;20488;-34
2023/05/15 07:33:15;;;;;;;22.73;19.65;;;13.70;99.90;;;;;;5153763;27;20069;-34
2023/05/15 07:35:41;;;;;;;23.80;18.52;;;13.90;99.90;;;;;;5142953;27;20074;-35
2023/05/15 07:38:07;;;;;;;24.30;19.98;;;14.10;99.90;;;;;;5136681;27;20056;-34
2023/05/15 07:40:33;;;;;;;20.05;16.85;;;14.20;99.90;;;;;;5129258;27;20090;-34
2023/05/15 07:42:58;;;;;;;22.90;18.30;;;14.30;99.90;;;;;;5141417;27;20027;-34
2023/05/15 07:45:24;;;;;;;21.20;17.60;;;14.40;99.90;;;;;;5136516;27;20038;-35
2023/05/15 07:47:50;;;;;;;20.60;17.50;;;14.30;99.90;;;;;;5137881;27;20122;-35
2023/05/15 07:50:16;;;;;;;21.42;17.88;;;14.60;99.90;;;;;;5137771;27;20031;-35
2023/05/15 07:52:43;;;;;;;21.33;18.25;;;14.80;99.90;;;;;;5140182;27;20053;-35
2023/05/15 07:55:10;;;;;;;21.38;18.05;;;15.00;99.90;;;;;;5144520;27;20038;-35
2023/05/15 07:57:36;;;;;;;20.80;18.55;;;15.10;99.90;;;;;;5146237;27;20031;-35
2023/05/15 08:00:08;;;;;;;23.60;18.48;;;15.30;99.90;;;;;;5142059;27;20264;-35
2023/05/15 08:02:35;;;;;;;26.63;18.55;;;15.30;99.90;;;;;;5143861;27;20035;-35
2023/05/15 08:05:01;;;;;;;20.95;17.70;;;15.50;99.90;;;;;;5150322;27;20042;-35
2023/05/15 08:07:29;;;;;;;20.40;18.13;;;15.80;99.90;;;;;;5156571;27;20072;-35
2023/05/15 08:09:55;;;;;;;19.33;17.10;;;15.80;99.90;;;;;;5152249;27;20037;-35
2023/05/15 08:12:21;;;;;;;19.27;17.15;;;15.80;99.90;;;;;;5135876;27;20468;-35
2023/05/15 08:14:54;;;;;;;20.30;16.50;;;16.10;99.90;;;;;;5147362;27;20122;-35
2023/05/15 08:17:21;;;;;;;17.73;15.88;;;16.30;99.90;;;;;;5135692;27;20031;-35
2023/05/15 08:19:47;;;;;;;18.98;16.83;;;16.30;99.90;;;;;;5135720;27;20037;-35
2023/05/15 08:22:13;;;;;;;20.23;16.33;;;16.70;99.90;;;;;;5138918;27;20045;-35
2023/05/15 08:24:40;;;;;;;18.92;16.05;;;16.80;99.90;;;;;;5156217;27;20050;-35
2023/05/15 08:27:07;;;;;;;20.08;16.52;;;17.10;99.90;;;;;;5150367;27;20038;-35
2023/05/15 08:29:36;;;;;;;18.27;15.85;;;17.20;99.90;;;;;;5145922;27;20041;-35
2023/05/15 08:32:02;;;;;;;17.70;15.73;;;17.40;99.90;;;;;;5138878;27;20392;-35
2023/05/15 08:34:28;;;;;;;17.67;15.77;;;17.60;99.90;;;;;;5136372;27;20045;-35
2023/05/15 08:36:55;;;;;;;17.55;15.70;;;17.90;99.90;;;;;;5152312;27;20046;-35
2023/05/15 08:39:21;;;;;;;16.63;14.85;;;17.90;99.90;;;;;;5139113;27;20034;-35
2023/05/15 08:41:50;;;;;;;18.92;15.75;;;17.80;99.90;;;;;;5157201;27;20026;-35
2023/05/15 08:44:16;;;;;;;16.85;15.15;;;17.90;99.90;;;;;;5137595;27;20041;-35
2023/05/15 08:46:42;;;;;;;16.50;14.63;;;18.10;99.90;;;;;;5137610;27;20042;-35
2023/05/15 08:49:16;;;;;;;17.10;15.30;;;18.10;99.90;;;;;;5152084;27;20399;-35
2023/05/15 08:51:42;;;;;;;16.20;14.57;;;18.40;99.90;;;;;;5135060;27;20049;-35
2023/05/15 08:54:09;;;;;;;15.63;14.02;;;18.70;99.90;;;;;;5149617;27;20034;-35
2023/05/15 08:56:35;;;;;;;17.25;14.45;;;19.00;99.90;;;;;;5154982;27;20034;-35
2023/05/15 08:59:01;;;;;;;15.55;14.02;;;19.30;99.90;;;;;;5148337;27;20039;-35
2023/05/15 09:01:27;;;;;;;16.23;14.50;;;19.50;99.90;;;;;;5148506;27;20066;-35
2023/05/15 09:03:53;;;;;;;16.67;14.77;;;19.60;99.90;;;;;;5168283;27;20042;-35
2023/05/15 09:06:20;;;;;;;17.75;15.02;;;19.80;99.90;;;;;;5141018;27;20058;-35
2023/05/15 09:08:47;;;;;;;17.83;16.02;;;19.70;99.90;;;;;;5140429;27;20042;-36
2023/05/15 09:11:14;;;;;;;15.18;13.75;;;19.60;99.90;;;;;;5155852;27;20042;-35
2023/05/15 09:13:40;;;;;;;16.33;14.70;;;19.90;99.90;;;;;;5145425;27;20078;-35
2023/05/15 09:16:06;;;;;;;16.85;14.05;;;19.80;99.90;;;;;;5139467;27;20570;-35
2023/05/15 09:18:32;;;;;;;16.20;14.50;;;19.90;99.90;;;;;;5140558;27;20476;-36
2023/05/15 09:21:21;;;;;;;16.35;14.63;;;20.00;99.90;;;;;;5147890;27;20418;-35
2023/05/15 09:23:46;;;;;;;16.80;15.05;;;20.20;99.90;;;;;;5175250;27;20161;-36
2023/05/15 09:26:12;;;;;;;16.63;14.82;;;20.20;99.90;;;;;;5161906;27;20043;-35
2023/05/15 09:28:42;;;;;;;14.77;13.30;;;20.50;99.90;;;;;;5138794;27;20476;-35
2023/05/15 09:31:08;;;;;;;13.77;12.48;;;20.70;99.90;;;;;;5145175;27;20121;-35
2023/05/15 09:33:35;;;;;;;13.60;12.20;;;20.90;99.90;;;;;;5145372;27;20053;-35
2023/05/15 09:36:03;;;;;;;14.88;13.45;;;20.90;99.90;;;;;;5144406;27;20069;-35
2023/05/15 09:38:31;;;;;;;13.70;12.40;;;20.90;99.90;;;;;;5147076;27;20034;-36
2023/05/15 09:41:02;;;;;;;13.48;12.15;;;20.90;99.90;;;;;;5143560;27;20038;-36
2023/05/15 09:43:32;;;;;;;13.23;12.07;;;21.20;99.90;;;;;;5162481;27;20121;-35
2023/05/15 09:45:57;;;;;;;14.65;13.15;;;21.00;99.90;;;;;;5138430;27;20031;-35
2023/05/15 09:48:23;;;;;;;14.00;12.70;;;21.50;99.90;;;;;;5149304;27;20030;-35
2023/05/15 09:50:49;;;;;;;15.55;14.02;;;21.90;99.90;;;;;;5147015;27;20387;-35
2023/05/15 09:53:15;;;;;;;15.07;13.68;;;22.20;99.90;;;;;;5144885;27;20042;-35
2023/05/15 09:55:42;;;;;;;16.05;14.55;;;22.40;99.90;;;;;;5153669;27;20038;-35
2023/05/15 09:58:13;;;;;;;14.55;13.15;;;22.70;99.90;;;;;;5153228;27;20391;-35
2023/05/15 10:00:40;;;;;;;17.85;14.40;;;23.00;99.90;;;;;;5143674;27;20034;-35
2023/05/15 10:03:07;;;;;;;15.95;14.30;;;23.10;99.90;;;;;;5144472;27;20113;-36
2023/05/15 10:05:33;;;;;;;15.02;13.63;;;23.20;99.90;;;;;;5151774;27;20034;-35
2023/05/15 10:07:59;;;;;;;14.88;13.48;;;23.40;99.90;;;;;;5140936;27;20033;-35
2023/05/15 10:10:27;;;;;;;13.85;12.60;;;23.50;99.90;;;;;;5132102;27;20034;-35
2023/05/15 10:13:00;;;;;;;15.52;14.10;;;23.50;97.80;;;;;;5157050;27;20035;-35
2023/05/15 10:15:27;;;;;;;14.52;13.15;;;23.50;92.40;;;;;;5150958;27;20070;-35
2023/05/15 10:17:53;;;;;;;12.88;11.57;;;23.30;78.10;;;;;;5155496;27;20034;-36
2023/05/15 10:20:21;;;;;;;13.88;12.60;;;23.30;79.70;;;;;;5161092;27;20432;-35
2023/05/15 10:22:52;;;;;;;12.60;11.40;;;23.30;78.70;;;;;;5158973;27;20030;-35
2023/05/15 10:25:33;;;;;;;12.85;11.65;;;23.10;64.30;;;;;;5149569;27;20477;-35
2023/05/15 10:27:59;;;;;;;13.68;12.15;;;22.80;65.30;;;;;;5147218;27;20042;-35
2023/05/15 10:30:26;;;;;;;14.93;13.57;;;23.00;72.90;;;;;;5144596;27;20035;-36
2023/05/15 10:32:53;;;;;;;11.63;10.55;;;23.10;72.60;;;;;;5158631;27;20064;-35
2023/05/15 10:35:20;;;;;;;11.00;9.90;;;23.50;72.10;;;;;;5147202;27;20066;-35
2023/05/15 10:37:47;;;;;;;9.10;8.18;;;23.80;68.10;;;;;;5148332;27;20365;-35
2023/05/15 10:40:15;;;;;;;7.85;7.05;;;24.00;62.60;;;;;;5140432;27;20570;-35
2023/05/15 10:42:43;;;;;;;8.10;7.40;;;24.30;56.70;;;;;;5150601;27;20419;-36
2023/05/15 10:45:10;;;;;;;9.25;7.55;;;24.10;53.70;;;;;;5139325;27;20172;-35
2023/05/15 10:47:37;;;;;;;9.30;8.40;;;24.50;54.10;;;;;;5156092;27;20045;-35
2023/05/15 10:50:04;;;;;;;9.65;8.65;;;24.70;53.80;;;;;;5155200;27;20026;-36
2023/05/15 10:52:32;;;;;;;10.80;9.90;;;24.90;53.70;;;;;;5152790;27;20042;-36
2023/05/15 10:54:58;;;;;;;10.00;9.20;;;25.20;54.00;;;;;;5155364;27;20038;-36
2023/05/15 10:57:27;;;;;;;11.98;10.98;;;25.40;54.20;;;;;;5144776;27;20037;-36
2023/05/15 10:59:52;;;;;;;12.02;10.93;;;25.60;53.90;;;;;;5156311;27;20029;-36
2023/05/15 11:02:25;;;;;;;13.00;11.90;;;25.80;54.50;;;;;;5176524;27;20480;-35
2023/05/15 11:05:00;;;;;;;13.43;12.32;;;25.70;52.80;;;;;;5151172;27;20039;-37
2023/05/15 11:07:27;;;;;;;12.45;11.43;;;25.30;53.60;;;;;;5172527;27;20045;-36
2023/05/15 11:09:54;;;;;;;13.07;11.90;;;25.40;55.00;;;;;;5137183;27;20563;-36
2023/05/15 11:12:21;;;;;;;12.25;11.25;;;25.40;55.20;;;;;;5143236;27;20428;-36
2023/05/15 11:14:55;;;;;;;13.75;12.32;;;25.50;55.30;;;;;;5142773;27;20045;-36
2023/05/15 11:17:25;;;;;;;13.68;12.52;;;25.50;53.70;;;;;;5137683;27;20054;-36
2023/05/15 11:19:51;;;;;;;15.05;13.40;;;25.10;54.20;;;;;;5153553;27;20030;-35
2023/05/15 11:22:31;;;;;;;12.60;11.45;;;24.70;54.20;;;;;;5139100;27;20035;-36
2023/05/15 11:25:08;;;;;;;11.75;10.85;;;24.50;55.40;;;;;;5138515;27;20036;-36
2023/05/15 11:27:42;;;;;;;12.38;11.18;;;24.50;55.90;;;;;;5136682;27;20035;-36
2023/05/15 11:30:09;;;;;;;14.13;11.43;;;24.30;56.50;;;;;;5141361;27;20304;-35
2023/05/15 11:33:00;;;;;;;13.13;11.93;;;24.20;57.20;;;;;;5144967;27;20094;-36
2023/05/15 11:35:41;;;;;;;14.55;13.15;;;24.20;58.10;;;;;;5146518;27;20034;-36
2023/05/15 11:38:09;;;;;;;12.65;11.52;;;24.00;57.90;;;;;;5136321;27;20069;-35
2023/05/15 11:40:47;;;;;;;13.80;12.50;;;24.00;60.00;;;;;;5146798;27;20027;-35
2023/05/15 11:43:34;;;;;;;12.25;11.07;;;24.70;61.60;;;;;;5145280;27;20179;-36
2023/05/15 11:46:06;;;;;;;13.18;12.07;;;24.90;59.00;;;;;;5147573;27;20510;-35
2023/05/15 11:48:48;;;;;;;10.88;9.95;;;25.00;59.20;;;;;;5152153;27;20035;-36
2023/05/15 11:51:20;;;;;;;12.55;11.45;;;25.10;57.60;;;;;;5166112;27;20490;-35
2023/05/15 11:53:48;;;;;;;11.60;10.48;;;24.70;56.10;;;;;;5148188;27;20121;-35
2023/05/15 11:56:27;;;;;;;11.10;10.20;;;24.50;55.50;;;;;;5147764;27;20035;-36
2023/05/15 11:58:58;;;;;;;11.63;10.73;;;24.20;55.50;;;;;;5141772;27;20031;-35
2023/05/15 12:01:24;;;;;;;13.00;11.82;;;24.10;56.50;;;;;;5162957;27;20479;-35
2023/05/15 12:03:52;;;;;;;12.77;11.57;;;24.50;58.80;;;;;;5173506;27;20034;-36
2023/05/15 12:06:18;;;;;;;13.13;12.02;;;24.50;57.20;;;;;;5143839;27;20038;-36
2023/05/15 12:08:51;;;;;;;12.40;11.23;;;23.80;56.20;;;;;;5153910;27;20049;-36
2023/05/15 12:11:21;;;;;;;15.23;11.63;;;23.20;56.40;;;;;;5155896;27;20563;-35
2023/05/15 12:13:52;;;;;;;12.93;11.73;;;23.00;60.00;;;;;;5136638;27;20038;-36
2023/05/15 12:16:24;;;;;;;11.70;10.68;;;23.10;62.20;;;;;;5170555;27;20101;-35
2023/05/15 12:18:50;;;;;;;11.48;10.48;;;23.40;61.80;;;;;;5153616;27;20700;-35
2023/05/15 12:21:16;;;;;;;13.40;10.85;;;24.20;62.80;;;;;;5150359;27;20143;-36
2023/05/15 12:23:52;;;;;;;11.38;10.25;;;24.50;58.70;;;;;;5150211;27;21555;-36
2023/05/15 12:26:21;;;;;;;11.93;10.80;;;24.50;56.10;;;;;;5143842;27;20438;-35
2023/05/15 12:28:49;;;;;;;11.20;10.20;;;24.30;56.10;;;;;;5156661;27;20041;-36
2023/05/15 12:31:16;;;;;;;10.60;9.65;;;24.60;57.00;;;;;;5153449;27;20042;-36